This is the latest recevied weather packets stored in our database for station/object VA3WWD-2. If no packets are shown the sender has not sent any weather packets the latest 10 day(s).
| Time | Temp. | Humidity | Pressure | Rain* | Wind** | Luminosity | Snow |
|---|---|---|---|---|---|---|---|
| 1778184375 | 8.33° C | 34% | - | 0 mm | 0 m/s | - | - |
| 1778183776 | 8.33° C | 33% | - | 0 mm | 0 m/s | - | - |
| 1778183478 | 8.33° C | 31% | - | 0 mm | 0 m/s | - | - |
| 1778183177 | 8.33° C | 31% | - | 0 mm | 0 m/s | - | - |
| 1778182581 | 7.22° C | 37% | - | 0 mm | 0 m/s | - | - |
| 1778182280 | 7.78° C | 35% | - | 0 mm | 0 m/s | - | - |
| 1778181982 | 7.78° C | 33% | - | 0 mm | 0 m/s | - | - |
| 1778181383 | 8.33° C | 33% | - | 0 mm | 0 m/s | - | - |
| 1778181085 | 8.33° C | 36% | - | 0 mm | 0 m/s | - | - |
| 1778180787 | 7.22° C | 36% | - | 0 mm | 0 m/s | - | - |
| 1778180486 | 7.78° C | 36% | - | 0 mm | 0 m/s | - | - |
| 1778180188 | 7.78° C | 36% | - | 0 mm | 0 m/s | - | - |
| 1778179890 | 8.33° C | 32% | - | 0 mm | 0 m/s | - | - |
| 1778179589 | 8.89° C | 30% | - | 0 mm | 0 m/s | - | - |
| 1778179291 | 8.33° C | 39% | - | 0 mm | 0 m/s | - | - |
| 1778178993 | 7.22° C | 39% | - | 0 mm | 0 m/s | - | - |
| 1778178692 | 7.22° C | 35% | - | 0 mm | 0 m/s | - | - |
| 1778178394 | 7.78° C | 31% | - | 0 mm | 0 m/s | - | - |
| 1778178096 | 7.78° C | 36% | - | 0 mm | 0 m/s | - | - |
| 1778177795 | 7.78° C | 35% | - | 0 mm | 0 m/s | - | - |
| 1778177497 | 7.22° C | 36% | - | 0 mm | 0 m/s | - | - |
| 1778177199 | 6.11° C | 39% | - | 0 mm | 0 m/s | - | - |
| 1778176898 | 6.67° C | 37% | - | 0 mm | 0 m/s | - | - |
| 1778176600 | 6.67° C | 39% | - | 0 mm | 0 m/s | - | - |
| 1778176302 | 7.22° C | 36% | - | 0 mm | 0 m/s | - | - |
* Rain latest hour (hover to see other rain measurements)
** Current wind speed in m/s (hover to see current wind gust speed)